sensor_id;sensor_type;location;lat;lon;timestamp;temperature;humidity
51811;DHT22;52468;40.116;18.296;2023-04-03T00:01:17;14.60;79.50
51811;DHT22;52468;40.116;18.296;2023-04-03T00:03:45;14.60;79.40
51811;DHT22;52468;40.116;18.296;2023-04-03T00:06:14;14.50;79.80
51811;DHT22;52468;40.116;18.296;2023-04-03T00:08:42;14.50;79.80
51811;DHT22;52468;40.116;18.296;2023-04-03T00:11:11;14.50;79.70
51811;DHT22;52468;40.116;18.296;2023-04-03T00:13:39;14.50;80.00
51811;DHT22;52468;40.116;18.296;2023-04-03T00:16:08;14.50;79.70
51811;DHT22;52468;40.116;18.296;2023-04-03T00:18:39;14.40;79.60
51811;DHT22;52468;40.116;18.296;2023-04-03T00:21:09;14.50;79.70
51811;DHT22;52468;40.116;18.296;2023-04-03T00:23:37;14.50;79.70
51811;DHT22;52468;40.116;18.296;2023-04-03T00:26:05;14.40;79.60
51811;DHT22;52468;40.116;18.296;2023-04-03T00:28:33;14.40;79.60
51811;DHT22;52468;40.116;18.296;2023-04-03T00:31:01;14.50;79.40
51811;DHT22;52468;40.116;18.296;2023-04-03T00:33:29;14.40;79.50
51811;DHT22;52468;40.116;18.296;2023-04-03T00:35:57;14.40;79.50
51811;DHT22;52468;40.116;18.296;2023-04-03T00:38:25;14.30;79.70
51811;DHT22;52468;40.116;18.296;2023-04-03T00:40:52;14.10;79.80
51811;DHT22;52468;40.116;18.296;2023-04-03T00:43:24;14.10;80.00
51811;DHT22;52468;40.116;18.296;2023-04-03T00:45:56;14.10;80.50
51811;DHT22;52468;40.116;18.296;2023-04-03T00:48:31;14.10;80.40
51811;DHT22;52468;40.116;18.296;2023-04-03T00:51:02;14.10;80.30
51811;DHT22;52468;40.116;18.296;2023-04-03T00:53:34;14.10;80.40
51811;DHT22;52468;40.116;18.296;2023-04-03T00:56:06;14.10;80.50
51811;DHT22;52468;40.116;18.296;2023-04-03T00:59:00;14.10;80.40
51811;DHT22;52468;40.116;18.296;2023-04-03T01:01:30;14.10;80.30
51811;DHT22;52468;40.116;18.296;2023-04-03T01:04:00;14.10;80.30
51811;DHT22;52468;40.116;18.296;2023-04-03T01:06:30;14.20;80.20
51811;DHT22;52468;40.116;18.296;2023-04-03T01:09:06;14.20;80.20
51811;DHT22;52468;40.116;18.296;2023-04-03T01:11:34;14.20;80.20
51811;DHT22;52468;40.116;18.296;2023-04-03T01:14:02;14.20;80.30
51811;DHT22;52468;40.116;18.296;2023-04-03T01:16:30;14.20;80.30
51811;DHT22;52468;40.116;18.296;2023-04-03T01:19:00;14.30;80.40
51811;DHT22;52468;40.116;18.296;2023-04-03T01:24:23;14.40;79.90
51811;DHT22;52468;40.116;18.296;2023-04-03T01:26:55;14.50;79.90
51811;DHT22;52468;40.116;18.296;2023-04-03T01:29:23;14.40;79.90
51811;DHT22;52468;40.116;18.296;2023-04-03T01:31:57;14.30;80.10
51811;DHT22;52468;40.116;18.296;2023-04-03T01:34:26;14.40;80.10
51811;DHT22;52468;40.116;18.296;2023-04-03T01:36:54;14.40;80.30
51811;DHT22;52468;40.116;18.296;2023-04-03T01:39:23;14.40;80.30
51811;DHT22;52468;40.116;18.296;2023-04-03T01:41:51;14.40;80.40
51811;DHT22;52468;40.116;18.296;2023-04-03T01:44:30;14.50;80.20
51811;DHT22;52468;40.116;18.296;2023-04-03T01:46:58;14.40;80.20
51811;DHT22;52468;40.116;18.296;2023-04-03T01:49:28;14.40;80.30
51811;DHT22;52468;40.116;18.296;2023-04-03T01:51:57;14.40;80.40
51811;DHT22;52468;40.116;18.296;2023-04-03T01:54:24;14.40;80.30
51811;DHT22;52468;40.116;18.296;2023-04-03T01:56:52;14.50;80.00
51811;DHT22;52468;40.116;18.296;2023-04-03T01:59:21;14.50;80.00
51811;DHT22;52468;40.116;18.296;2023-04-03T02:01:49;14.40;80.10
51811;DHT22;52468;40.116;18.296;2023-04-03T02:04:17;14.40;80.30
51811;DHT22;52468;40.116;18.296;2023-04-03T02:06:45;14.30;80.60
51811;DHT22;52468;40.116;18.296;2023-04-03T02:09:13;14.40;80.60
51811;DHT22;52468;40.116;18.296;2023-04-03T02:11:41;14.40;80.40
51811;DHT22;52468;40.116;18.296;2023-04-03T02:14:09;14.40;80.50
51811;DHT22;52468;40.116;18.296;2023-04-03T02:16:38;14.40;80.50
51811;DHT22;52468;40.116;18.296;2023-04-03T02:19:06;14.50;80.40
51811;DHT22;52468;40.116;18.296;2023-04-03T02:21:34;14.40;80.80
51811;DHT22;52468;40.116;18.296;2023-04-03T02:24:01;14.50;80.80
51811;DHT22;52468;40.116;18.296;2023-04-03T02:26:29;14.50;80.60
51811;DHT22;52468;40.116;18.296;2023-04-03T02:28:57;14.50;80.70
51811;DHT22;52468;40.116;18.296;2023-04-03T02:31:25;14.50;80.80
51811;DHT22;52468;40.116;18.296;2023-04-03T02:33:54;14.50;80.90
51811;DHT22;52468;40.116;18.296;2023-04-03T02:36:21;14.50;80.90
51811;DHT22;52468;40.116;18.296;2023-04-03T02:38:54;14.50;81.20
51811;DHT22;52468;40.116;18.296;2023-04-03T02:41:22;14.50;81.10
51811;DHT22;52468;40.116;18.296;2023-04-03T02:43:51;14.50;81.30
51811;DHT22;52468;40.116;18.296;2023-04-03T02:46:19;14.60;81.40
51811;DHT22;52468;40.116;18.296;2023-04-03T02:48:47;14.60;81.30
51811;DHT22;52468;40.116;18.296;2023-04-03T02:51:15;14.60;81.30
51811;DHT22;52468;40.116;18.296;2023-04-03T02:53:43;14.60;81.30
51811;DHT22;52468;40.116;18.296;2023-04-03T02:56:17;14.70;81.20
51811;DHT22;52468;40.116;18.296;2023-04-03T02:58:45;14.60;81.60
51811;DHT22;52468;40.116;18.296;2023-04-03T03:01:13;14.50;81.80
51811;DHT22;52468;40.116;18.296;2023-04-03T03:03:41;14.60;81.90
51811;DHT22;52468;40.116;18.296;2023-04-03T03:06:12;14.50;82.20
51811;DHT22;52468;40.116;18.296;2023-04-03T03:08:40;14.60;82.00
51811;DHT22;52468;40.116;18.296;2023-04-03T03:11:09;14.50;82.20
51811;DHT22;52468;40.116;18.296;2023-04-03T03:13:37;14.50;82.40
51811;DHT22;52468;40.116;18.296;2023-04-03T03:16:05;14.50;82.20
51811;DHT22;52468;40.116;18.296;2023-04-03T03:18:34;14.50;82.10
51811;DHT22;52468;40.116;18.296;2023-04-03T03:21:03;14.50;82.20
51811;DHT22;52468;40.116;18.296;2023-04-03T03:23:33;14.50;82.20
51811;DHT22;52468;40.116;18.296;2023-04-03T03:26:03;14.50;82.10
51811;DHT22;52468;40.116;18.296;2023-04-03T03:28:35;14.40;82.30
51811;DHT22;52468;40.116;18.296;2023-04-03T03:31:06;14.40;82.40
51811;DHT22;52468;40.116;18.296;2023-04-03T03:33:36;14.30;82.40
51811;DHT22;52468;40.116;18.296;2023-04-03T03:36:04;14.30;82.50
51811;DHT22;52468;40.116;18.296;2023-04-03T03:38:32;14.30;82.50
51811;DHT22;52468;40.116;18.296;2023-04-03T03:41:01;14.30;82.20
51811;DHT22;52468;40.116;18.296;2023-04-03T03:43:31;14.30;82.30
51811;DHT22;52468;40.116;18.296;2023-04-03T03:45:59;14.20;82.50
51811;DHT22;52468;40.116;18.296;2023-04-03T03:48:28;14.20;82.70
51811;DHT22;52468;40.116;18.296;2023-04-03T03:50:56;14.10;82.80
51811;DHT22;52468;40.116;18.296;2023-04-03T03:53:28;14.10;82.90
51811;DHT22;52468;40.116;18.296;2023-04-03T03:56:00;14.10;82.90
51811;DHT22;52468;40.116;18.296;2023-04-03T03:58:30;14.10;82.60
51811;DHT22;52468;40.116;18.296;2023-04-03T04:01:01;14.00;83.00
51811;DHT22;52468;40.116;18.296;2023-04-03T04:03:30;14.00;83.00
51811;DHT22;52468;40.116;18.296;2023-04-03T04:05:58;14.00;83.40
51811;DHT22;52468;40.116;18.296;2023-04-03T04:08:27;13.90;83.70
51811;DHT22;52468;40.116;18.296;2023-04-03T04:10:54;13.90;83.70
51811;DHT22;52468;40.116;18.296;2023-04-03T04:13:22;13.90;83.60
51811;DHT22;52468;40.116;18.296;2023-04-03T04:15:51;13.90;83.60
51811;DHT22;52468;40.116;18.296;2023-04-03T04:18:19;13.90;83.60
51811;DHT22;52468;40.116;18.296;2023-04-03T04:20:49;13.70;83.90
51811;DHT22;52468;40.116;18.296;2023-04-03T04:23:18;13.60;83.90
51811;DHT22;52468;40.116;18.296;2023-04-03T04:25:48;13.60;84.00
51811;DHT22;52468;40.116;18.296;2023-04-03T04:28:17;13.60;84.10
51811;DHT22;52468;40.116;18.296;2023-04-03T04:30:47;13.50;84.30
51811;DHT22;52468;40.116;18.296;2023-04-03T04:33:16;13.50;84.20
51811;DHT22;52468;40.116;18.296;2023-04-03T04:35:47;13.50;84.30
51811;DHT22;52468;40.116;18.296;2023-04-03T04:38:17;13.50;84.30
51811;DHT22;52468;40.116;18.296;2023-04-03T04:40:45;13.40;84.40
51811;DHT22;52468;40.116;18.296;2023-04-03T04:43:13;13.40;84.30
51811;DHT22;52468;40.116;18.296;2023-04-03T04:45:45;13.40;84.50
51811;DHT22;52468;40.116;18.296;2023-04-03T04:48:17;13.40;84.50
51811;DHT22;52468;40.116;18.296;2023-04-03T04:50:45;13.40;84.70
51811;DHT22;52468;40.116;18.296;2023-04-03T04:53:14;13.50;84.30
51811;DHT22;52468;40.116;18.296;2023-04-03T04:55:42;13.40;84.70
51811;DHT22;52468;40.116;18.296;2023-04-03T04:58:10;13.50;84.40
51811;DHT22;52468;40.116;18.296;2023-04-03T05:00:38;13.40;84.40
51811;DHT22;52468;40.116;18.296;2023-04-03T05:03:07;13.40;84.50
51811;DHT22;52468;40.116;18.296;2023-04-03T05:05:34;13.30;84.70
51811;DHT22;52468;40.116;18.296;2023-04-03T05:08:04;13.30;85.10
51811;DHT22;52468;40.116;18.296;2023-04-03T05:10:32;13.30;85.20
51811;DHT22;52468;40.116;18.296;2023-04-03T05:13:00;13.30;85.70
51811;DHT22;52468;40.116;18.296;2023-04-03T05:15:28;13.30;85.50
51811;DHT22;52468;40.116;18.296;2023-04-03T05:17:56;13.20;85.90
51811;DHT22;52468;40.116;18.296;2023-04-03T05:20:24;13.30;86.00
51811;DHT22;52468;40.116;18.296;2023-04-03T05:22:52;13.20;86.50
51811;DHT22;52468;40.116;18.296;2023-04-03T05:25:20;13.30;86.50
51811;DHT22;52468;40.116;18.296;2023-04-03T05:27:48;13.40;86.40
51811;DHT22;52468;40.116;18.296;2023-04-03T05:30:17;13.30;87.20
51811;DHT22;52468;40.116;18.296;2023-04-03T05:32:47;13.30;87.20
51811;DHT22;52468;40.116;18.296;2023-04-03T05:35:19;13.40;87.10
51811;DHT22;52468;40.116;18.296;2023-04-03T05:37:50;13.40;87.10
51811;DHT22;52468;40.116;18.296;2023-04-03T05:40:18;13.40;87.60
51811;DHT22;52468;40.116;18.296;2023-04-03T05:42:49;13.30;87.80
51811;DHT22;52468;40.116;18.296;2023-04-03T05:45:18;13.40;87.70
51811;DHT22;52468;40.116;18.296;2023-04-03T05:47:46;13.40;87.30
51811;DHT22;52468;40.116;18.296;2023-04-03T05:50:14;13.40;87.60
51811;DHT22;52468;40.116;18.296;2023-04-03T05:52:45;13.40;87.40
51811;DHT22;52468;40.116;18.296;2023-04-03T05:55:15;13.50;87.10
51811;DHT22;52468;40.116;18.296;2023-04-03T05:57:44;13.40;87.40
51811;DHT22;52468;40.116;18.296;2023-04-03T06:00:15;13.50;87.50
51811;DHT22;52468;40.116;18.296;2023-04-03T06:02:52;13.40;87.80
51811;DHT22;52468;40.116;18.296;2023-04-03T06:05:23;13.30;88.20
51811;DHT22;52468;40.116;18.296;2023-04-03T06:07:51;13.30;88.20
51811;DHT22;52468;40.116;18.296;2023-04-03T06:10:19;13.30;88.10
51811;DHT22;52468;40.116;18.296;2023-04-03T06:12:47;13.40;88.10
51811;DHT22;52468;40.116;18.296;2023-04-03T06:15:15;13.40;88.20
51811;DHT22;52468;40.116;18.296;2023-04-03T06:17:44;13.50;88.30
51811;DHT22;52468;40.116;18.296;2023-04-03T06:20:13;13.50;88.50
51811;DHT22;52468;40.116;18.296;2023-04-03T06:22:41;13.60;88.30
51811;DHT22;52468;40.116;18.296;2023-04-03T06:25:11;13.70;87.60
51811;DHT22;52468;40.116;18.296;2023-04-03T06:27:39;13.70;87.80
51811;DHT22;52468;40.116;18.296;2023-04-03T06:30:07;13.70;87.80
51811;DHT22;52468;40.116;18.296;2023-04-03T06:32:35;13.60;87.50
51811;DHT22;52468;40.116;18.296;2023-04-03T06:35:05;13.60;87.50
51811;DHT22;52468;40.116;18.296;2023-04-03T06:37:33;13.50;87.60
51811;DHT22;52468;40.116;18.296;2023-04-03T06:40:01;13.50;87.60
51811;DHT22;52468;40.116;18.296;2023-04-03T06:42:30;13.50;87.30
51811;DHT22;52468;40.116;18.296;2023-04-03T06:45:06;13.50;87.20
51811;DHT22;52468;40.116;18.296;2023-04-03T06:47:35;13.50;87.40
51811;DHT22;52468;40.116;18.296;2023-04-03T06:50:03;13.40;87.60
51811;DHT22;52468;40.116;18.296;2023-04-03T06:52:32;13.30;88.00
51811;DHT22;52468;40.116;18.296;2023-04-03T06:54:59;13.40;87.90
51811;DHT22;52468;40.116;18.296;2023-04-03T06:57:28;13.30;88.00
51811;DHT22;52468;40.116;18.296;2023-04-03T06:59:55;13.40;87.90
51811;DHT22;52468;40.116;18.296;2023-04-03T07:02:24;13.40;87.60
51811;DHT22;52468;40.116;18.296;2023-04-03T07:04:52;13.40;87.70
51811;DHT22;52468;40.116;18.296;2023-04-03T07:07:19;13.30;88.00
51811;DHT22;52468;40.116;18.296;2023-04-03T07:09:47;13.30;88.20
51811;DHT22;52468;40.116;18.296;2023-04-03T07:12:15;13.40;87.90
51811;DHT22;52468;40.116;18.296;2023-04-03T07:14:44;13.30;88.00
51811;DHT22;52468;40.116;18.296;2023-04-03T07:17:11;13.40;88.10
51811;DHT22;52468;40.116;18.296;2023-04-03T07:19:39;13.40;87.80
51811;DHT22;52468;40.116;18.296;2023-04-03T07:22:08;13.30;88.10
51811;DHT22;52468;40.116;18.296;2023-04-03T07:24:35;13.40;87.70
51811;DHT22;52468;40.116;18.296;2023-04-03T07:27:04;13.30;87.90
51811;DHT22;52468;40.116;18.296;2023-04-03T07:29:32;13.30;88.10
51811;DHT22;52468;40.116;18.296;2023-04-03T07:31:59;13.30;88.20
51811;DHT22;52468;40.116;18.296;2023-04-03T07:34:28;13.30;88.20
51811;DHT22;52468;40.116;18.296;2023-04-03T07:36:56;13.40;88.50
51811;DHT22;52468;40.116;18.296;2023-04-03T07:39:24;13.40;88.20
51811;DHT22;52468;40.116;18.296;2023-04-03T07:41:52;13.40;88.00
51811;DHT22;52468;40.116;18.296;2023-04-03T07:44:20;13.40;87.90
51811;DHT22;52468;40.116;18.296;2023-04-03T07:46:48;13.40;87.80
51811;DHT22;52468;40.116;18.296;2023-04-03T07:49:16;13.30;87.70
51811;DHT22;52468;40.116;18.296;2023-04-03T07:51:45;13.20;87.60
51811;DHT22;52468;40.116;18.296;2023-04-03T07:54:14;13.10;88.00
51811;DHT22;52468;40.116;18.296;2023-04-03T07:56:42;13.10;88.20
51811;DHT22;52468;40.116;18.296;2023-04-03T07:59:11;13.00;88.60
51811;DHT22;52468;40.116;18.296;2023-04-03T08:01:39;13.10;88.30
51811;DHT22;52468;40.116;18.296;2023-04-03T08:04:07;13.10;88.50
51811;DHT22;52468;40.116;18.296;2023-04-03T08:06:35;13.00;88.60
51811;DHT22;52468;40.116;18.296;2023-04-03T08:09:09;13.10;88.30
51811;DHT22;52468;40.116;18.296;2023-04-03T08:11:39;13.10;88.40
51811;DHT22;52468;40.116;18.296;2023-04-03T08:14:07;13.00;88.40
51811;DHT22;52468;40.116;18.296;2023-04-03T08:16:35;12.90;88.30
51811;DHT22;52468;40.116;18.296;2023-04-03T08:19:03;12.80;88.30
51811;DHT22;52468;40.116;18.296;2023-04-03T08:21:31;12.90;88.30
51811;DHT22;52468;40.116;18.296;2023-04-03T08:23:59;12.80;88.60
51811;DHT22;52468;40.116;18.296;2023-04-03T08:26:27;12.80;88.60
51811;DHT22;52468;40.116;18.296;2023-04-03T08:28:55;12.80;88.90
51811;DHT22;52468;40.116;18.296;2023-04-03T08:31:23;12.80;89.20
51811;DHT22;52468;40.116;18.296;2023-04-03T08:33:51;13.00;89.30
51811;DHT22;52468;40.116;18.296;2023-04-03T08:36:26;13.00;89.00
51811;DHT22;52468;40.116;18.296;2023-04-03T08:38:55;13.00;88.60
51811;DHT22;52468;40.116;18.296;2023-04-03T08:49:33;12.90;88.70
51811;DHT22;52468;40.116;18.296;2023-04-03T08:52:11;13.00;89.30
51811;DHT22;52468;40.116;18.296;2023-04-03T08:54:57;13.20;88.70
51811;DHT22;52468;40.116;18.296;2023-04-03T08:57:41;13.20;88.60
51811;DHT22;52468;40.116;18.296;2023-04-03T09:02:48;13.30;88.60
51811;DHT22;52468;40.116;18.296;2023-04-03T09:05:19;13.20;88.10
51811;DHT22;52468;40.116;18.296;2023-04-03T09:07:57;13.20;88.60
51811;DHT22;52468;40.116;18.296;2023-04-03T09:10:33;13.20;88.30
51811;DHT22;52468;40.116;18.296;2023-04-03T09:15:48;13.20;88.60
51811;DHT22;52468;40.116;18.296;2023-04-03T09:18:20;13.30;88.80
51811;DHT22;52468;40.116;18.296;2023-04-03T09:21:25;13.50;88.80
51811;DHT22;52468;40.116;18.296;2023-04-03T09:23:58;13.60;88.60
51811;DHT22;52468;40.116;18.296;2023-04-03T09:27:06;13.60;88.00
51811;DHT22;52468;40.116;18.296;2023-04-03T09:29:41;13.50;87.80
51811;DHT22;52468;40.116;18.296;2023-04-03T09:32:27;13.40;87.80
51811;DHT22;52468;40.116;18.296;2023-04-03T09:37:48;13.40;87.70
51811;DHT22;52468;40.116;18.296;2023-04-03T09:42:56;13.30;87.70
51811;DHT22;52468;40.116;18.296;2023-04-03T09:45:34;13.30;87.70
51811;DHT22;52468;40.116;18.296;2023-04-03T09:50:58;13.40;88.10
51811;DHT22;52468;40.116;18.296;2023-04-03T09:53:35;13.50;88.10
51811;DHT22;52468;40.116;18.296;2023-04-03T09:56:25;13.50;87.60
51811;DHT22;52468;40.116;18.296;2023-04-03T10:01:36;13.30;87.60
51811;DHT22;52468;40.116;18.296;2023-04-03T10:06:40;13.30;87.80
51811;DHT22;52468;40.116;18.296;2023-04-03T10:09:31;13.50;87.90
51811;DHT22;52468;40.116;18.296;2023-04-03T10:14:38;13.70;88.30
51811;DHT22;52468;40.116;18.296;2023-04-03T10:17:30;13.90;88.60
51811;DHT22;52468;40.116;18.296;2023-04-03T10:25:41;14.80;87.80
51811;DHT22;52468;40.116;18.296;2023-04-03T10:31:10;15.30;87.20
51811;DHT22;52468;40.116;18.296;2023-04-03T10:34:06;15.40;86.30
51811;DHT22;52468;40.116;18.296;2023-04-03T10:36:47;15.60;85.70
51811;DHT22;52468;40.116;18.296;2023-04-03T10:39:46;15.80;85.10
51811;DHT22;52468;40.116;18.296;2023-04-03T10:42:33;15.70;84.60
51811;DHT22;52468;40.116;18.296;2023-04-03T10:55:57;15.60;84.40
51811;DHT22;52468;40.116;18.296;2023-04-03T10:58:34;15.60;85.40
51811;DHT22;52468;40.116;18.296;2023-04-03T11:01:05;15.60;84.30
51811;DHT22;52468;40.116;18.296;2023-04-03T11:03:56;15.60;84.10
51811;DHT22;52468;40.116;18.296;2023-04-03T11:06:30;15.60;84.50
51811;DHT22;52468;40.116;18.296;2023-04-03T11:09:02;15.80;85.10
51811;DHT22;52468;40.116;18.296;2023-04-03T11:11:36;16.00;84.00
51811;DHT22;52468;40.116;18.296;2023-04-03T11:14:28;16.40;84.40
51811;DHT22;52468;40.116;18.296;2023-04-03T11:17:11;16.70;82.60
51811;DHT22;52468;40.116;18.296;2023-04-03T11:22:41;17.20;81.40
51811;DHT22;52468;40.116;18.296;2023-04-03T11:25:19;17.50;79.30
51811;DHT22;52468;40.116;18.296;2023-04-03T11:27:57;17.20;78.20
51811;DHT22;52468;40.116;18.296;2023-04-03T11:36:41;16.90;78.70
51811;DHT22;52468;40.116;18.296;2023-04-03T11:41:53;16.00;80.80
51811;DHT22;52468;40.116;18.296;2023-04-03T11:44:37;16.00;81.80
51811;DHT22;52468;40.116;18.296;2023-04-03T11:47:07;16.10;82.10
51811;DHT22;52468;40.116;18.296;2023-04-03T12:08:25;15.50;80.40
51811;DHT22;52468;40.116;18.296;2023-04-03T12:29:51;15.60;84.90
51811;DHT22;52468;40.116;18.296;2023-04-03T12:43:42;14.50;84.30
51811;DHT22;52468;40.116;18.296;2023-04-03T12:46:19;14.50;84.00
51811;DHT22;52468;40.116;18.296;2023-04-03T12:48:54;14.30;84.40
51811;DHT22;52468;40.116;18.296;2023-04-03T12:51:38;14.40;84.70
51811;DHT22;52468;40.116;18.296;2023-04-03T12:54:18;14.40;84.90
51811;DHT22;52468;40.116;18.296;2023-04-03T12:56:47;14.50;85.60
51811;DHT22;52468;40.116;18.296;2023-04-03T13:01:57;14.60;84.40
51811;DHT22;52468;40.116;18.296;2023-04-03T13:04:26;14.50;84.50
51811;DHT22;52468;40.116;18.296;2023-04-03T13:06:55;14.30;85.00
51811;DHT22;52468;40.116;18.296;2023-04-03T13:09:26;14.20;85.50
51811;DHT22;52468;40.116;18.296;2023-04-03T13:12:18;14.50;84.40
51811;DHT22;52468;40.116;18.296;2023-04-03T13:14:58;14.40;84.50
51811;DHT22;52468;40.116;18.296;2023-04-03T13:17:27;14.60;85.10
51811;DHT22;52468;40.116;18.296;2023-04-03T13:19:55;14.60;85.50
51811;DHT22;52468;40.116;18.296;2023-04-03T13:22:35;14.60;85.00
51811;DHT22;52468;40.116;18.296;2023-04-03T13:25:08;14.80;84.60
51811;DHT22;52468;40.116;18.296;2023-04-03T13:27:38;14.70;83.90
51811;DHT22;52468;40.116;18.296;2023-04-03T13:30:39;14.50;84.50
51811;DHT22;52468;40.116;18.296;2023-04-03T13:33:24;14.50;85.60
51811;DHT22;52468;40.116;18.296;2023-04-03T13:36:08;14.60;85.20
51811;DHT22;52468;40.116;18.296;2023-04-03T13:38:37;14.50;84.70
51811;DHT22;52468;40.116;18.296;2023-04-03T13:41:29;14.50;84.80
51811;DHT22;52468;40.116;18.296;2023-04-03T13:44:23;14.30;84.80
51811;DHT22;52468;40.116;18.296;2023-04-03T13:46:58;14.10;85.00
51811;DHT22;52468;40.116;18.296;2023-04-03T13:51:54;14.10;85.80
51811;DHT22;52468;40.116;18.296;2023-04-03T13:54:34;14.10;85.60
51811;DHT22;52468;40.116;18.296;2023-04-03T13:57:10;14.00;86.40
51811;DHT22;52468;40.116;18.296;2023-04-03T13:59:39;14.10;84.80
51811;DHT22;52468;40.116;18.296;2023-04-03T14:02:32;13.80;85.40
51811;DHT22;52468;40.116;18.296;2023-04-03T14:05:02;13.80;85.80
51811;DHT22;52468;40.116;18.296;2023-04-03T14:07:31;13.80;86.00
51811;DHT22;52468;40.116;18.296;2023-04-03T14:09:58;13.70;85.80
51811;DHT22;52468;40.116;18.296;2023-04-03T14:14:57;13.70;85.60
51811;DHT22;52468;40.116;18.296;2023-04-03T14:17:26;13.50;85.60
51811;DHT22;52468;40.116;18.296;2023-04-03T14:19:57;13.50;86.40
51811;DHT22;52468;40.116;18.296;2023-04-03T14:22:28;13.60;86.70
51811;DHT22;52468;40.116;18.296;2023-04-03T14:24:57;13.60;87.00
51811;DHT22;52468;40.116;18.296;2023-04-03T14:27:28;13.70;86.50
51811;DHT22;52468;40.116;18.296;2023-04-03T14:29:57;13.50;86.30
51811;DHT22;52468;40.116;18.296;2023-04-03T14:32:26;13.50;86.30
51811;DHT22;52468;40.116;18.296;2023-04-03T14:34:54;13.20;86.30
51811;DHT22;52468;40.116;18.296;2023-04-03T14:37:25;13.20;87.20
51811;DHT22;52468;40.116;18.296;2023-04-03T14:39:55;13.30;86.90
51811;DHT22;52468;40.116;18.296;2023-04-03T14:42:32;13.20;87.30
51811;DHT22;52468;40.116;18.296;2023-04-03T14:45:01;13.20;86.70
51811;DHT22;52468;40.116;18.296;2023-04-03T14:47:30;13.30;86.70
51811;DHT22;52468;40.116;18.296;2023-04-03T14:50:00;13.20;86.60
51811;DHT22;52468;40.116;18.296;2023-04-03T14:52:33;13.20;86.30
51811;DHT22;52468;40.116;18.296;2023-04-03T14:55:03;13.10;86.80
51811;DHT22;52468;40.116;18.296;2023-04-03T14:57:31;13.20;86.70
51811;DHT22;52468;40.116;18.296;2023-04-03T14:59:59;13.10;86.60
51811;DHT22;52468;40.116;18.296;2023-04-03T15:02:32;13.10;86.80
51811;DHT22;52468;40.116;18.296;2023-04-03T15:05:02;13.00;87.10
51811;DHT22;52468;40.116;18.296;2023-04-03T15:07:52;13.10;86.70
51811;DHT22;52468;40.116;18.296;2023-04-03T15:10:27;12.90;86.60
51811;DHT22;52468;40.116;18.296;2023-04-03T15:12:56;12.90;87.40
51811;DHT22;52468;40.116;18.296;2023-04-03T15:15:24;12.90;87.40
51811;DHT22;52468;40.116;18.296;2023-04-03T15:17:56;13.00;87.00
51811;DHT22;52468;40.116;18.296;2023-04-03T15:20:28;13.10;86.80
51811;DHT22;52468;40.116;18.296;2023-04-03T15:23:00;13.10;87.20
51811;DHT22;52468;40.116;18.296;2023-04-03T15:25:32;13.10;87.00
51811;DHT22;52468;40.116;18.296;2023-04-03T15:28:00;13.00;87.80
51811;DHT22;52468;40.116;18.296;2023-04-03T15:30:28;13.10;88.00
51811;DHT22;52468;40.116;18.296;2023-04-03T15:32:56;13.20;87.20
51811;DHT22;52468;40.116;18.296;2023-04-03T15:35:24;13.10;87.40
51811;DHT22;52468;40.116;18.296;2023-04-03T15:37:52;13.10;88.00
51811;DHT22;52468;40.116;18.296;2023-04-03T15:40:19;13.10;87.60
51811;DHT22;52468;40.116;18.296;2023-04-03T15:42:48;13.00;87.60
51811;DHT22;52468;40.116;18.296;2023-04-03T15:45:16;13.00;87.80
51811;DHT22;52468;40.116;18.296;2023-04-03T15:47:43;13.00;87.60
51811;DHT22;52468;40.116;18.296;2023-04-03T15:50:12;13.00;87.80
51811;DHT22;52468;40.116;18.296;2023-04-03T15:52:40;13.00;87.90
51811;DHT22;52468;40.116;18.296;2023-04-03T15:55:08;13.00;87.80
51811;DHT22;52468;40.116;18.296;2023-04-03T15:57:36;13.00;87.70
51811;DHT22;52468;40.116;18.296;2023-04-03T16:00:09;12.90;87.80
51811;DHT22;52468;40.116;18.296;2023-04-03T16:02:37;12.80;88.20
51811;DHT22;52468;40.116;18.296;2023-04-03T16:05:05;12.80;88.10
51811;DHT22;52468;40.116;18.296;2023-04-03T16:07:33;12.80;88.10
51811;DHT22;52468;40.116;18.296;2023-04-03T16:10:01;12.80;87.50
51811;DHT22;52468;40.116;18.296;2023-04-03T16:12:29;12.80;87.20
51811;DHT22;52468;40.116;18.296;2023-04-03T16:14:57;12.60;87.90
51811;DHT22;52468;40.116;18.296;2023-04-03T16:17:26;12.60;88.00
51811;DHT22;52468;40.116;18.296;2023-04-03T16:19:55;12.50;88.40
51811;DHT22;52468;40.116;18.296;2023-04-03T16:22:25;12.50;88.60
51811;DHT22;52468;40.116;18.296;2023-04-03T16:24:54;12.50;88.80
51811;DHT22;52468;40.116;18.296;2023-04-03T16:27:22;12.50;88.30
51811;DHT22;52468;40.116;18.296;2023-04-03T16:29:55;12.40;89.00
51811;DHT22;52468;40.116;18.296;2023-04-03T16:32:24;12.40;89.30
51811;DHT22;52468;40.116;18.296;2023-04-03T16:34:53;12.50;89.10
51811;DHT22;52468;40.116;18.296;2023-04-03T16:37:21;12.50;88.60
51811;DHT22;52468;40.116;18.296;2023-04-03T16:39:49;12.40;88.80
51811;DHT22;52468;40.116;18.296;2023-04-03T16:42:16;12.30;89.00
51811;DHT22;52468;40.116;18.296;2023-04-03T16:44:44;12.30;89.20
51811;DHT22;52468;40.116;18.296;2023-04-03T16:47:12;12.30;89.30
51811;DHT22;52468;40.116;18.296;2023-04-03T16:49:41;12.40;89.40
51811;DHT22;52468;40.116;18.296;2023-04-03T16:52:09;12.30;89.10
51811;DHT22;52468;40.116;18.296;2023-04-03T16:54:37;12.30;89.20
51811;DHT22;52468;40.116;18.296;2023-04-03T16:57:05;12.20;89.60
51811;DHT22;52468;40.116;18.296;2023-04-03T16:59:33;12.20;89.50
51811;DHT22;52468;40.116;18.296;2023-04-03T17:02:01;12.20;90.00
51811;DHT22;52468;40.116;18.296;2023-04-03T17:04:28;12.20;89.70
51811;DHT22;52468;40.116;18.296;2023-04-03T17:06:57;12.20;89.70
51811;DHT22;52468;40.116;18.296;2023-04-03T17:09:24;12.10;89.50
51811;DHT22;52468;40.116;18.296;2023-04-03T17:11:52;12.20;89.60
51811;DHT22;52468;40.116;18.296;2023-04-03T17:14:21;12.10;89.30
51811;DHT22;52468;40.116;18.296;2023-04-03T17:16:49;12.10;89.60
51811;DHT22;52468;40.116;18.296;2023-04-03T17:19:17;12.10;89.40
51811;DHT22;52468;40.116;18.296;2023-04-03T17:21:45;12.00;89.30
51811;DHT22;52468;40.116;18.296;2023-04-03T17:24:14;12.10;89.60
51811;DHT22;52468;40.116;18.296;2023-04-03T17:26:42;12.10;89.70
51811;DHT22;52468;40.116;18.296;2023-04-03T17:29:10;12.10;89.80
51811;DHT22;52468;40.116;18.296;2023-04-03T17:31:38;12.20;89.70
51811;DHT22;52468;40.116;18.296;2023-04-03T17:34:06;12.20;89.40
51811;DHT22;52468;40.116;18.296;2023-04-03T17:36:34;12.30;89.10
51811;DHT22;52468;40.116;18.296;2023-04-03T17:39:02;12.50;89.40